North Augusta, South Carolina
Current Conditions -  °F | °C
As of 9:53 AM on Saturday 25 Oct 2014 (Local Time) from KDNL Reporting Station
Clear Clear  
Wind Chill: 60°   Ceiling: Unl
Heat Index: 60°   Visibility: 10mi
Dew Point: 45°   Wind: 8mph
Humidity: 57%   Direction: 350°N
Pressure: 30.06"   Gusts: NA
Location:  33.5°N, 81.97°W
Report Text: KDNL 251353Z AUTO 35007KT 10SM CLR 16/07 A3006 RMK AO2 SLP178 T01560072
Loading
Personal Weather Stations






























Interactive Weather Map
Tropical Storm Tracking
New forecast layout! Learn more

10-Day Weather Forecast

Advertisements
Track Severe Weather on mobile